Historyczne dane pomiarowe

Dodano dane terminowe – wersja testowa.

Dane z okresu 1951-2019

Wersja bazy: 1.34 [2019-03-16, lista zmian], aktualizacja planowana na 2019-04-15

Dane meteo z obszaru Polski uzyskane na podstawie danych udostępnionych przez Instytut Meteorologii i Gospodarki Wodnej – Państwowy Instytut Badawczy.

 

Wybierz Datę:    

       

TemperaturaWilgotnośćWiatrCiśnienieOpadyŚniegCzas trwania zjawisk
 Stacja t tx tn tng RH VA  wxwx mslp ppp RRR   cm mm wxwxwxwxwxwxwx
1961-08-14 14.2 18.7 10.7- 82.0- 7.7 3.3---- 2.8------------
1961-08-13 13.2 18.2 9.3- 82.8- 2.0 4.3---- 0.0------------
1961-08-12 14.8 19.4 12.7- 90.0- 2.3 4.0---- 0.0------------
1961-08-11 15.9 18.0 14.9- 97.3- 7.3 0.7---- 14.3------------
1961-08-10 18.0 22.6 11.9- 87.3- 6.3 1.0---- 5.5------------
1961-08-09 19.0 23.7 12.8- 66.3- 2.0 4.3---- 0.0------------
1961-08-08 16.4 19.4 8.6- 81.5- 4.3 3.3---- 0.7------------
1961-08-07 14.1 20.7 11.9- 96.0- 5.3 1.7---- 6.7------------
1961-08-06 17.9 23.0 16.5- 86.3- 5.3 4.7---- 1.2------------
1961-08-05 17.7 20.9 13.1- 90.0- 5.0 2.0---- 5.8------------
1961-08-04 14.4 16.2 10.1- 90.0- 8.0 7.7---- 1.0------------
1961-08-03 13.8 18.1 11.5- 83.8- 5.0 4.7---- 5.6------------
1961-08-02 14.4 16.9 10.9- 91.0- 6.7 1.3---- 0.0------------
1961-08-01 14.3 17.4 12.8- 87.8- 5.0 5.7---- 0.0------------
1961-07-31 13.8 16.4 12.5- 90.3- 8.0 9.0---- 14.2------------
1961-07-30 15.5 17.1 10.2- 82.5- 7.3 6.3---- 0.0------------
1961-07-29 13.7 17.2 11.1- 78.8- 5.0 5.0---- 0.0------------
1961-07-28 13.0 15.9 11.9- 90.5- 6.0 2.3---- 0.7------------
1961-07-27 15.9 18.9 14.6- 82.0- 8.0 4.7---- 4.5------------
1961-07-26 17.4 23.5 14.4- 88.3- 8.0 5.7---- 1.8------------
1961-07-25 15.4 18.8 12.5- 80.5- 7.7 4.3---- 1.0------------
1961-07-24 13.9 16.8 12.7- 78.8- 5.7 4.3---- 0.0------------
1961-07-23 14.5 17.4 13.5- 79.5- 8.0 5.3---- 0.0------------
1961-07-22 14.8 17.7 13.3- 84.5- 7.3 5.0---- 0.0------------
1961-07-21 14.5 18.3 13.3- 92.8- 5.7 4.0---- 4.1------------
1961-07-20 15.1 18.4 10.7- 86.5- 6.0 4.7---- 1.5------------
1961-07-19 15.1 20.0 12.2- 82.3- 3.0 5.3---- 0.0------------
1961-07-18 14.7 18.5 11.2- 90.3- 4.7 4.3---- 0.0------------
1961-07-17 14.9 18.5 11.4- 85.5- 4.0 2.7---- 0.0------------
1961-07-16 14.9 21.9 12.2- 87.8- 3.3 1.0---- 0.8------------
1961-07-15 17.8 22.5 13.3- 76.8- 3.0 4.0---- 0.0------------
1961-07-14 15.1 20.3 12.7- 76.5- 7.7 6.7---- 0.0------------
1961-07-13 19.2 25.9 15.8- 85.8- 7.3 4.3---- 1.1------------
1961-07-12 18.2 22.5 12.7- 86.0- 5.0 4.0---- 0.0------------
1961-07-11 16.2 18.9 9.9- 85.8- 5.7 3.3---- 3.1------------
1961-07-10 12.8 15.2 9.9- 88.8- 6.0 5.0---- 4.0------------
1961-07-09 13.9 18.1 12.5- 92.3- 6.0 3.3---- 11.2------------
1961-07-08 16.3 19.7 12.7- 81.0- 8.0 3.0---- 12.7------------
1961-07-07 13.9 17.2 10.1- 81.0- 6.7 3.0---- 0.2------------
1961-07-06 13.2 17.0 8.8- 77.0- 6.7 6.3---- 12.2------------
1961-07-05 12.6 16.8 10.2- 73.0- 4.3 10.3---- 0.3------------
1961-07-04 15.5 18.8 11.8- 74.3- 6.7 5.0---- 1.2------------
1961-07-03 18.4 31.6 14.9- 82.0- 1.7 5.3---- 0.0------------
1961-07-02 23.5 28.1 11.9- 70.5- 0.0 0.3---- 0.0------------
1961-07-01 20.0 24.3 8.8- 71.5- 0.0 2.0---- 0.0------------
1961-06-30 18.3 21.3 11.9- 73.5- 0.0 3.3---- 0.0------------
1961-06-29 16.1 21.1 12.1- 79.5- 2.7 3.3---- 0.0------------
1961-06-28 15.2 18.5 11.1- 66.3- 4.3 8.0---- 0.0------------
1961-06-27 19.3 24.4 15.6- 83.0- 4.0 5.7---- 1.5------------
1961-06-26 22.3 27.9 12.2- 65.0- 0.0 2.0---- 0.0------------
1961-06-25 20.7 27.2 12.1- 72.0- 1.3 4.3---- 0.0------------
1961-06-24 17.8 23.9 13.1- 70.3- 3.7 5.3---- 0.0------------
1961-06-23 17.6 21.9 11.8- 68.5- 4.0 5.7---- 0.0------------
1961-06-22 17.2 20.3 8.2- 71.5- 5.3 5.3---- 0.0------------
1961-06-21 12.8 18.1 10.5- 76.3- 5.0 3.7---- 0.0------------
1961-06-20 13.5 18.4 8.9- 75.3- 2.0 4.0---- 0.0------------
1961-06-19 14.6 19.0 10.2- 65.5- 1.7 6.7---- 0.0------------
1961-06-18 18.6 23.7 15.6- 81.3- 5.3 7.7---- 0.0------------
1961-06-17 18.9 22.1 11.3- 71.0- 5.3 3.3---- 0.0------------
1961-06-16 13.6 19.0 10.9- 79.3- 4.0 4.0---- 0.0------------
1492.8 ms

 

Źródłem pochodzenia danych jest Instytut Meteorologii i Gospodarki Wodnej – Państwowy Instytut Badawczy. Dane Instytutu Meteorologii i Gospodarki Wodnej – Państwowego Instytutu Badawczego zostały przetworzone.

Dane źródłowe można odnaleźć na stronie https://dane.imgw.pl